sensor_id;sensor_type;location;lat;lon;timestamp;temperature;humidity
69189;DHT22;56302;52.322;5.926;2023-03-01T00:02:17;-3.70;80.50
69189;DHT22;56302;52.322;5.926;2023-03-01T00:04:42;-3.70;80.50
69189;DHT22;56302;52.322;5.926;2023-03-01T00:07:08;-3.70;80.60
69189;DHT22;56302;52.322;5.926;2023-03-01T00:09:33;-3.80;81.20
69189;DHT22;56302;52.322;5.926;2023-03-01T00:11:58;-3.90;81.60
69189;DHT22;56302;52.322;5.926;2023-03-01T00:14:24;-3.90;81.50
69189;DHT22;56302;52.322;5.926;2023-03-01T00:16:49;-3.80;81.30
69189;DHT22;56302;52.322;5.926;2023-03-01T00:19:17;-3.90;81.50
69189;DHT22;56302;52.322;5.926;2023-03-01T00:21:43;-3.90;81.30
69189;DHT22;56302;52.322;5.926;2023-03-01T00:24:09;-4.00;81.60
69189;DHT22;56302;52.322;5.926;2023-03-01T00:26:35;-3.90;81.30
69189;DHT22;56302;52.322;5.926;2023-03-01T00:29:00;-3.90;81.40
69189;DHT22;56302;52.322;5.926;2023-03-01T00:31:28;-4.00;82.00
69189;DHT22;56302;52.322;5.926;2023-03-01T00:34:00;-4.00;82.10
69189;DHT22;56302;52.322;5.926;2023-03-01T00:36:27;-4.10;82.20
69189;DHT22;56302;52.322;5.926;2023-03-01T00:38:54;-4.10;82.00
69189;DHT22;56302;52.322;5.926;2023-03-01T00:41:20;-4.10;81.90
69189;DHT22;56302;52.322;5.926;2023-03-01T00:43:47;-4.10;81.80
69189;DHT22;56302;52.322;5.926;2023-03-01T00:46:17;-4.10;81.80
69189;DHT22;56302;52.322;5.926;2023-03-01T00:48:43;-4.20;82.30
69189;DHT22;56302;52.322;5.926;2023-03-01T00:51:17;-4.30;83.00
69189;DHT22;56302;52.322;5.926;2023-03-01T00:53:43;-4.20;83.00
69189;DHT22;56302;52.322;5.926;2023-03-01T00:56:10;-4.30;83.30
69189;DHT22;56302;52.322;5.926;2023-03-01T00:58:36;-4.20;83.00
69189;DHT22;56302;52.322;5.926;2023-03-01T01:01:08;-4.20;82.80
69189;DHT22;56302;52.322;5.926;2023-03-01T01:04:04;-4.20;82.50
69189;DHT22;56302;52.322;5.926;2023-03-01T01:06:31;-4.20;82.60
69189;DHT22;56302;52.322;5.926;2023-03-01T01:08:57;-4.20;82.40
69189;DHT22;56302;52.322;5.926;2023-03-01T01:11:25;-4.20;82.20
69189;DHT22;56302;52.322;5.926;2023-03-01T01:13:51;-4.20;82.30
69189;DHT22;56302;52.322;5.926;2023-03-01T01:16:17;-4.30;82.30
69189;DHT22;56302;52.322;5.926;2023-03-01T01:18:44;-4.30;82.30
69189;DHT22;56302;52.322;5.926;2023-03-01T01:21:12;-4.30;82.40
69189;DHT22;56302;52.322;5.926;2023-03-01T01:23:39;-4.40;82.60
69189;DHT22;56302;52.322;5.926;2023-03-01T01:26:16;-4.40;82.60
69189;DHT22;56302;52.322;5.926;2023-03-01T01:28:42;-4.40;82.50
69189;DHT22;56302;52.322;5.926;2023-03-01T01:31:07;-4.50;83.10
69189;DHT22;56302;52.322;5.926;2023-03-01T01:33:33;-4.50;83.60
69189;DHT22;56302;52.322;5.926;2023-03-01T01:35:59;-4.50;83.80
69189;DHT22;56302;52.322;5.926;2023-03-01T01:38:25;-4.60;84.20
69189;DHT22;56302;52.322;5.926;2023-03-01T01:40:51;-4.70;85.10
69189;DHT22;56302;52.322;5.926;2023-03-01T01:43:23;-4.70;85.00
69189;DHT22;56302;52.322;5.926;2023-03-01T01:45:51;-4.60;84.30
69189;DHT22;56302;52.322;5.926;2023-03-01T01:48:24;-4.50;83.70
69189;DHT22;56302;52.322;5.926;2023-03-01T01:50:59;-4.50;83.40
69189;DHT22;56302;52.322;5.926;2023-03-01T01:53:27;-4.50;83.40
69189;DHT22;56302;52.322;5.926;2023-03-01T01:55:58;-4.60;83.80
69189;DHT22;56302;52.322;5.926;2023-03-01T01:58:27;-4.60;83.80
69189;DHT22;56302;52.322;5.926;2023-03-01T02:00:54;-4.60;83.80
69189;DHT22;56302;52.322;5.926;2023-03-01T02:03:26;-4.60;83.60
69189;DHT22;56302;52.322;5.926;2023-03-01T02:05:59;-4.60;83.30
69189;DHT22;56302;52.322;5.926;2023-03-01T02:08:29;-4.60;83.10
69189;DHT22;56302;52.322;5.926;2023-03-01T02:10:56;-4.60;82.90
69189;DHT22;56302;52.322;5.926;2023-03-01T02:13:22;-4.60;82.90
69189;DHT22;56302;52.322;5.926;2023-03-01T02:15:49;-4.60;82.90
69189;DHT22;56302;52.322;5.926;2023-03-01T02:18:18;-4.70;83.40
69189;DHT22;56302;52.322;5.926;2023-03-01T02:21:29;-4.80;84.50
69189;DHT22;56302;52.322;5.926;2023-03-01T02:23:34;-4.80;85.20
69189;DHT22;56302;52.322;5.926;2023-03-01T02:26:18;-4.90;85.40
69189;DHT22;56302;52.322;5.926;2023-03-01T02:28:45;-4.80;85.10
69189;DHT22;56302;52.322;5.926;2023-03-01T02:31:16;-4.80;84.70
69189;DHT22;56302;52.322;5.926;2023-03-01T02:34:01;-5.00;85.50
69189;DHT22;56302;52.322;5.926;2023-03-01T02:36:33;-5.00;86.00
69189;DHT22;56302;52.322;5.926;2023-03-01T02:39:01;-5.00;85.80
69189;DHT22;56302;52.322;5.926;2023-03-01T02:41:30;-5.00;85.80
69189;DHT22;56302;52.322;5.926;2023-03-01T02:43:56;-5.00;85.50
69189;DHT22;56302;52.322;5.926;2023-03-01T02:46:24;-4.90;85.00
69189;DHT22;56302;52.322;5.926;2023-03-01T02:48:55;-4.90;84.70
69189;DHT22;56302;52.322;5.926;2023-03-01T02:51:45;-4.90;84.50
69189;DHT22;56302;52.322;5.926;2023-03-01T02:57:04;-4.90;84.10
69189;DHT22;56302;52.322;5.926;2023-03-01T02:59:32;-4.90;84.10
69189;DHT22;56302;52.322;5.926;2023-03-01T03:02:05;-4.90;84.00
69189;DHT22;56302;52.322;5.926;2023-03-01T03:04:30;-4.90;84.00
69189;DHT22;56302;52.322;5.926;2023-03-01T03:06:56;-5.00;84.00
69189;DHT22;56302;52.322;5.926;2023-03-01T03:09:21;-5.00;83.90
69189;DHT22;56302;52.322;5.926;2023-03-01T03:11:47;-5.00;83.80
69189;DHT22;56302;52.322;5.926;2023-03-01T03:14:14;-5.00;84.00
69189;DHT22;56302;52.322;5.926;2023-03-01T03:16:45;-5.00;84.00
69189;DHT22;56302;52.322;5.926;2023-03-01T03:19:11;-5.00;84.00
69189;DHT22;56302;52.322;5.926;2023-03-01T03:21:37;-5.00;84.00
69189;DHT22;56302;52.322;5.926;2023-03-01T03:24:03;-5.00;84.00
69189;DHT22;56302;52.322;5.926;2023-03-01T03:26:29;-5.00;83.90
69189;DHT22;56302;52.322;5.926;2023-03-01T03:28:55;-5.10;84.00
69189;DHT22;56302;52.322;5.926;2023-03-01T03:31:20;-5.10;84.00
69189;DHT22;56302;52.322;5.926;2023-03-01T03:33:46;-5.10;83.90
69189;DHT22;56302;52.322;5.926;2023-03-01T03:36:16;-5.10;83.90
69189;DHT22;56302;52.322;5.926;2023-03-01T03:38:43;-5.20;84.00
69189;DHT22;56302;52.322;5.926;2023-03-01T03:41:09;-5.20;84.00
69189;DHT22;56302;52.322;5.926;2023-03-01T03:43:37;-5.20;84.00
69189;DHT22;56302;52.322;5.926;2023-03-01T03:46:03;-5.20;84.10
69189;DHT22;56302;52.322;5.926;2023-03-01T03:48:36;-5.20;84.40
69189;DHT22;56302;52.322;5.926;2023-03-01T03:51:03;-5.20;84.20
69189;DHT22;56302;52.322;5.926;2023-03-01T03:53:31;-5.20;84.20
69189;DHT22;56302;52.322;5.926;2023-03-01T03:55:57;-5.20;84.30
69189;DHT22;56302;52.322;5.926;2023-03-01T03:58:24;-5.30;84.20
69189;DHT22;56302;52.322;5.926;2023-03-01T04:00:53;-5.30;84.30
69189;DHT22;56302;52.322;5.926;2023-03-01T04:03:19;-5.40;85.10
69189;DHT22;56302;52.322;5.926;2023-03-01T04:05:46;-5.50;85.30
69189;DHT22;56302;52.322;5.926;2023-03-01T04:08:12;-5.40;85.50
69189;DHT22;56302;52.322;5.926;2023-03-01T04:10:44;-5.40;85.10
69189;DHT22;56302;52.322;5.926;2023-03-01T04:13:23;-5.40;85.00
69189;DHT22;56302;52.322;5.926;2023-03-01T04:15:51;-5.40;84.90
69189;DHT22;56302;52.322;5.926;2023-03-01T04:18:21;-5.40;85.00
69189;DHT22;56302;52.322;5.926;2023-03-01T04:20:47;-5.40;84.90
69189;DHT22;56302;52.322;5.926;2023-03-01T04:23:18;-5.40;84.80
69189;DHT22;56302;52.322;5.926;2023-03-01T04:25:57;-5.40;85.40
69189;DHT22;56302;52.322;5.926;2023-03-01T04:28:34;-5.40;85.20
69189;DHT22;56302;52.322;5.926;2023-03-01T04:31:04;-5.50;84.90
69189;DHT22;56302;52.322;5.926;2023-03-01T04:33:39;-5.50;84.90
69189;DHT22;56302;52.322;5.926;2023-03-01T04:36:05;-5.50;84.90
69189;DHT22;56302;52.322;5.926;2023-03-01T04:38:32;-5.50;85.10
69189;DHT22;56302;52.322;5.926;2023-03-01T04:40:57;-5.50;85.20
69189;DHT22;56302;52.322;5.926;2023-03-01T04:43:23;-5.50;85.20
69189;DHT22;56302;52.322;5.926;2023-03-01T04:45:48;-5.60;86.10
69189;DHT22;56302;52.322;5.926;2023-03-01T04:48:14;-5.80;87.90
69189;DHT22;56302;52.322;5.926;2023-03-01T04:50:39;-5.70;88.30
69189;DHT22;56302;52.322;5.926;2023-03-01T04:53:05;-5.60;87.60
69189;DHT22;56302;52.322;5.926;2023-03-01T04:55:30;-5.60;87.40
69189;DHT22;56302;52.322;5.926;2023-03-01T04:57:56;-5.60;87.20
69189;DHT22;56302;52.322;5.926;2023-03-01T05:00:22;-5.60;86.70
69189;DHT22;56302;52.322;5.926;2023-03-01T05:03:00;-5.50;86.20
69189;DHT22;56302;52.322;5.926;2023-03-01T05:05:34;-5.60;86.10
69189;DHT22;56302;52.322;5.926;2023-03-01T05:08:04;-5.60;86.00
69189;DHT22;56302;52.322;5.926;2023-03-01T05:10:32;-5.60;85.60
69189;DHT22;56302;52.322;5.926;2023-03-01T05:12:58;-5.60;85.50
69189;DHT22;56302;52.322;5.926;2023-03-01T05:15:28;-5.60;85.50
69189;DHT22;56302;52.322;5.926;2023-03-01T05:17:56;-5.60;85.40
69189;DHT22;56302;52.322;5.926;2023-03-01T05:20:25;-5.60;85.40
69189;DHT22;56302;52.322;5.926;2023-03-01T05:22:51;-5.60;85.30
69189;DHT22;56302;52.322;5.926;2023-03-01T05:25:19;-5.70;85.90
69189;DHT22;56302;52.322;5.926;2023-03-01T05:27:47;-5.70;85.70
69189;DHT22;56302;52.322;5.926;2023-03-01T05:30:13;-5.70;85.60
69189;DHT22;56302;52.322;5.926;2023-03-01T05:32:41;-5.70;85.60
69189;DHT22;56302;52.322;5.926;2023-03-01T05:35:08;-5.70;85.50
69189;DHT22;56302;52.322;5.926;2023-03-01T05:37:34;-5.70;85.40
69189;DHT22;56302;52.322;5.926;2023-03-01T05:40:01;-5.70;85.30
69189;DHT22;56302;52.322;5.926;2023-03-01T05:42:26;-5.70;85.50
69189;DHT22;56302;52.322;5.926;2023-03-01T05:44:52;-5.70;85.30
69189;DHT22;56302;52.322;5.926;2023-03-01T05:47:17;-5.70;85.30
69189;DHT22;56302;52.322;5.926;2023-03-01T05:49:43;-5.70;85.30
69189;DHT22;56302;52.322;5.926;2023-03-01T05:52:08;-5.80;85.40
69189;DHT22;56302;52.322;5.926;2023-03-01T05:54:34;-5.80;85.70
69189;DHT22;56302;52.322;5.926;2023-03-01T05:56:59;-5.80;85.60
69189;DHT22;56302;52.322;5.926;2023-03-01T05:59:25;-5.80;85.60
69189;DHT22;56302;52.322;5.926;2023-03-01T06:01:50;-5.80;85.50
69189;DHT22;56302;52.322;5.926;2023-03-01T06:04:16;-5.80;85.70
69189;DHT22;56302;52.322;5.926;2023-03-01T06:06:41;-5.80;85.60
69189;DHT22;56302;52.322;5.926;2023-03-01T06:09:07;-5.90;86.10
69189;DHT22;56302;52.322;5.926;2023-03-01T06:11:35;-5.90;86.50
69189;DHT22;56302;52.322;5.926;2023-03-01T06:14:00;-5.90;86.30
69189;DHT22;56302;52.322;5.926;2023-03-01T06:16:26;-5.80;86.20
69189;DHT22;56302;52.322;5.926;2023-03-01T06:18:51;-5.90;86.00
69189;DHT22;56302;52.322;5.926;2023-03-01T06:21:17;-5.90;85.90
69189;DHT22;56302;52.322;5.926;2023-03-01T06:23:42;-5.90;86.40
69189;DHT22;56302;52.322;5.926;2023-03-01T06:26:08;-5.90;86.70
69189;DHT22;56302;52.322;5.926;2023-03-01T06:28:35;-5.90;86.40
69189;DHT22;56302;52.322;5.926;2023-03-01T06:31:01;-5.90;86.20
69189;DHT22;56302;52.322;5.926;2023-03-01T06:33:27;-5.80;86.30
69189;DHT22;56302;52.322;5.926;2023-03-01T06:35:54;-5.80;86.20
69189;DHT22;56302;52.322;5.926;2023-03-01T06:38:20;-5.80;86.10
69189;DHT22;56302;52.322;5.926;2023-03-01T06:40:52;-5.70;86.30
69189;DHT22;56302;52.322;5.926;2023-03-01T06:43:19;-5.70;86.20
69189;DHT22;56302;52.322;5.926;2023-03-01T06:45:45;-5.70;86.30
69189;DHT22;56302;52.322;5.926;2023-03-01T06:48:10;-5.60;87.00
69189;DHT22;56302;52.322;5.926;2023-03-01T06:50:37;-5.50;86.90
69189;DHT22;56302;52.322;5.926;2023-03-01T06:53:03;-5.40;86.80
69189;DHT22;56302;52.322;5.926;2023-03-01T06:55:29;-5.40;86.50
69189;DHT22;56302;52.322;5.926;2023-03-01T06:57:59;-5.30;86.50
69189;DHT22;56302;52.322;5.926;2023-03-01T07:00:25;-5.20;86.80
69189;DHT22;56302;52.322;5.926;2023-03-01T07:02:51;-5.10;86.90
69189;DHT22;56302;52.322;5.926;2023-03-01T07:05:17;-5.00;86.90
69189;DHT22;56302;52.322;5.926;2023-03-01T07:07:43;-4.90;86.50
69189;DHT22;56302;52.322;5.926;2023-03-01T07:10:09;-4.80;87.00
69189;DHT22;56302;52.322;5.926;2023-03-01T07:12:34;-4.80;86.90
69189;DHT22;56302;52.322;5.926;2023-03-01T07:15:00;-4.60;86.80
69189;DHT22;56302;52.322;5.926;2023-03-01T07:17:25;-4.60;86.60
69189;DHT22;56302;52.322;5.926;2023-03-01T07:19:51;-4.50;86.50
69189;DHT22;56302;52.322;5.926;2023-03-01T07:22:16;-4.40;86.70
69189;DHT22;56302;52.322;5.926;2023-03-01T07:24:43;-4.30;86.10
69189;DHT22;56302;52.322;5.926;2023-03-01T07:27:09;-4.20;85.70
69189;DHT22;56302;52.322;5.926;2023-03-01T07:29:34;-4.10;85.30
69189;DHT22;56302;52.322;5.926;2023-03-01T07:32:02;-4.10;85.20
69189;DHT22;56302;52.322;5.926;2023-03-01T07:34:28;-4.00;85.10
69189;DHT22;56302;52.322;5.926;2023-03-01T07:36:53;-4.00;84.90
69189;DHT22;56302;52.322;5.926;2023-03-01T07:39:19;-3.90;85.00
69189;DHT22;56302;52.322;5.926;2023-03-01T07:41:44;-3.90;84.90
69189;DHT22;56302;52.322;5.926;2023-03-01T07:44:10;-3.80;84.80
69189;DHT22;56302;52.322;5.926;2023-03-01T07:46:36;-3.70;84.70
69189;DHT22;56302;52.322;5.926;2023-03-01T07:49:01;-3.70;84.70
69189;DHT22;56302;52.322;5.926;2023-03-01T07:51:27;-3.70;84.50
69189;DHT22;56302;52.322;5.926;2023-03-01T07:53:52;-3.60;84.50
69189;DHT22;56302;52.322;5.926;2023-03-01T07:56:18;-3.50;85.00
69189;DHT22;56302;52.322;5.926;2023-03-01T07:58:45;-3.50;85.20
69189;DHT22;56302;52.322;5.926;2023-03-01T08:01:16;-3.30;86.40
69189;DHT22;56302;52.322;5.926;2023-03-01T08:03:41;-3.20;86.50
69189;DHT22;56302;52.322;5.926;2023-03-01T08:06:09;-3.00;86.70
69189;DHT22;56302;52.322;5.926;2023-03-01T08:08:35;-2.80;85.90
69189;DHT22;56302;52.322;5.926;2023-03-01T08:11:03;-2.70;84.60
69189;DHT22;56302;52.322;5.926;2023-03-01T08:13:29;-2.60;84.60
69189;DHT22;56302;52.322;5.926;2023-03-01T08:16:01;-2.40;86.60
69189;DHT22;56302;52.322;5.926;2023-03-01T08:18:27;-2.20;87.40
69189;DHT22;56302;52.322;5.926;2023-03-01T08:20:52;-1.80;88.10
69189;DHT22;56302;52.322;5.926;2023-03-01T08:23:18;-1.40;88.60
69189;DHT22;56302;52.322;5.926;2023-03-01T08:25:43;-0.90;88.40
69189;DHT22;56302;52.322;5.926;2023-03-01T08:28:09;-0.50;87.30
69189;DHT22;56302;52.322;5.926;2023-03-01T08:30:34;-0.20;86.20
69189;DHT22;56302;52.322;5.926;2023-03-01T08:33:00;0.10;85.90
69189;DHT22;56302;52.322;5.926;2023-03-01T08:35:26;0.60;85.60
69189;DHT22;56302;52.322;5.926;2023-03-01T08:37:51;1.00;86.50
69189;DHT22;56302;52.322;5.926;2023-03-01T08:40:17;1.50;85.50
69189;DHT22;56302;52.322;5.926;2023-03-01T08:42:43;1.80;84.00
69189;DHT22;56302;52.322;5.926;2023-03-01T08:45:10;2.00;82.90
69189;DHT22;56302;52.322;5.926;2023-03-01T08:47:35;2.20;82.60
69189;DHT22;56302;52.322;5.926;2023-03-01T08:50:01;2.50;82.10
69189;DHT22;56302;52.322;5.926;2023-03-01T08:52:27;2.50;81.20
69189;DHT22;56302;52.322;5.926;2023-03-01T08:54:53;2.60;80.10
69189;DHT22;56302;52.322;5.926;2023-03-01T08:57:18;2.60;78.00
69189;DHT22;56302;52.322;5.926;2023-03-01T08:59:44;2.60;75.80
69189;DHT22;56302;52.322;5.926;2023-03-01T09:02:12;2.40;74.10
69189;DHT22;56302;52.322;5.926;2023-03-01T09:04:39;2.30;74.00
69189;DHT22;56302;52.322;5.926;2023-03-01T09:07:05;2.60;74.70
69189;DHT22;56302;52.322;5.926;2023-03-01T09:09:30;2.80;73.20
69189;DHT22;56302;52.322;5.926;2023-03-01T09:11:56;2.90;72.00
69189;DHT22;56302;52.322;5.926;2023-03-01T09:14:22;2.90;72.50
69189;DHT22;56302;52.322;5.926;2023-03-01T09:16:47;3.40;72.20
69189;DHT22;56302;52.322;5.926;2023-03-01T09:19:13;3.70;73.20
69189;DHT22;56302;52.322;5.926;2023-03-01T09:21:39;4.10;70.60
69189;DHT22;56302;52.322;5.926;2023-03-01T09:24:05;4.00;69.90
69189;DHT22;56302;52.322;5.926;2023-03-01T09:26:31;4.00;70.60
69189;DHT22;56302;52.322;5.926;2023-03-01T09:28:56;4.10;70.90
69189;DHT22;56302;52.322;5.926;2023-03-01T09:31:23;4.00;68.50
69189;DHT22;56302;52.322;5.926;2023-03-01T09:33:52;4.00;68.50
69189;DHT22;56302;52.322;5.926;2023-03-01T09:36:20;4.10;70.80
69189;DHT22;56302;52.322;5.926;2023-03-01T09:38:46;4.40;68.50
69189;DHT22;56302;52.322;5.926;2023-03-01T09:44:01;4.20;66.20
69189;DHT22;56302;52.322;5.926;2023-03-01T09:46:33;4.00;66.30
69189;DHT22;56302;52.322;5.926;2023-03-01T09:49:05;4.00;66.90
69189;DHT22;56302;52.322;5.926;2023-03-01T09:51:35;4.00;66.00
69189;DHT22;56302;52.322;5.926;2023-03-01T09:54:03;4.10;67.40
69189;DHT22;56302;52.322;5.926;2023-03-01T09:56:41;4.40;66.50
69189;DHT22;56302;52.322;5.926;2023-03-01T09:59:23;4.50;67.40
69189;DHT22;56302;52.322;5.926;2023-03-01T10:04:54;4.30;64.00
69189;DHT22;56302;52.322;5.926;2023-03-01T10:10:43;4.20;64.10
69189;DHT22;56302;52.322;5.926;2023-03-01T10:13:21;4.30;63.40
69189;DHT22;56302;52.322;5.926;2023-03-01T10:15:54;4.30;64.50
69189;DHT22;56302;52.322;5.926;2023-03-01T10:18:29;4.20;64.50
69189;DHT22;56302;52.322;5.926;2023-03-01T10:20:59;4.10;64.10
69189;DHT22;56302;52.322;5.926;2023-03-01T10:23:27;4.10;64.30
69189;DHT22;56302;52.322;5.926;2023-03-01T10:26:37;4.20;63.70
69189;DHT22;56302;52.322;5.926;2023-03-01T10:29:08;4.10;64.00
69189;DHT22;56302;52.322;5.926;2023-03-01T10:31:46;4.10;62.90
69189;DHT22;56302;52.322;5.926;2023-03-01T10:34:34;4.30;63.80
69189;DHT22;56302;52.322;5.926;2023-03-01T10:37:20;4.50;63.40
69189;DHT22;56302;52.322;5.926;2023-03-01T10:40:09;4.60;63.80
69189;DHT22;56302;52.322;5.926;2023-03-01T10:42:40;4.50;62.80
69189;DHT22;56302;52.322;5.926;2023-03-01T10:45:22;4.50;61.90
69189;DHT22;56302;52.322;5.926;2023-03-01T10:48:12;4.50;61.40
69189;DHT22;56302;52.322;5.926;2023-03-01T10:50:43;4.50;59.90
69189;DHT22;56302;52.322;5.926;2023-03-01T10:53:31;4.80;61.10
69189;DHT22;56302;52.322;5.926;2023-03-01T10:58:30;4.80;58.70
69189;DHT22;56302;52.322;5.926;2023-03-01T11:01:43;4.90;58.70
69189;DHT22;56302;52.322;5.926;2023-03-01T11:03:43;4.90;57.70
69189;DHT22;56302;52.322;5.926;2023-03-01T11:16:42;5.10;57.60
69189;DHT22;56302;52.322;5.926;2023-03-01T11:21:37;5.10;56.60
69189;DHT22;56302;52.322;5.926;2023-03-01T11:24:05;5.10;56.20
69189;DHT22;56302;52.322;5.926;2023-03-01T11:26:34;5.10;57.70
69189;DHT22;56302;52.322;5.926;2023-03-01T11:29:06;5.20;57.70
69189;DHT22;56302;52.322;5.926;2023-03-01T11:31:33;5.30;57.80
69189;DHT22;56302;52.322;5.926;2023-03-01T11:34:13;5.30;57.70
69189;DHT22;56302;52.322;5.926;2023-03-01T11:36:54;5.40;56.70
69189;DHT22;56302;52.322;5.926;2023-03-01T11:39:46;5.40;57.30
69189;DHT22;56302;52.322;5.926;2023-03-01T11:42:21;5.40;55.80
69189;DHT22;56302;52.322;5.926;2023-03-01T11:44:54;5.50;55.10
69189;DHT22;56302;52.322;5.926;2023-03-01T11:55:36;5.50;55.80
69189;DHT22;56302;52.322;5.926;2023-03-01T12:03:28;5.70;53.80
69189;DHT22;56302;52.322;5.926;2023-03-01T12:17:39;5.90;53.40
69189;DHT22;56302;52.322;5.926;2023-03-01T12:25:37;6.10;53.90
69189;DHT22;56302;52.322;5.926;2023-03-01T12:37:25;6.10;53.00
69189;DHT22;56302;52.322;5.926;2023-03-01T12:50:50;6.00;51.50
69189;DHT22;56302;52.322;5.926;2023-03-01T12:53:26;6.00;53.30
69189;DHT22;56302;52.322;5.926;2023-03-01T12:55:56;6.00;52.30
69189;DHT22;56302;52.322;5.926;2023-03-01T13:08:57;6.30;53.20
69189;DHT22;56302;52.322;5.926;2023-03-01T13:11:26;6.30;52.70
69189;DHT22;56302;52.322;5.926;2023-03-01T13:13:51;6.30;52.70
69189;DHT22;56302;52.322;5.926;2023-03-01T13:19:12;6.20;52.20
69189;DHT22;56302;52.322;5.926;2023-03-01T13:21:39;6.20;53.50
69189;DHT22;56302;52.322;5.926;2023-03-01T13:32:20;6.10;53.60
69189;DHT22;56302;52.322;5.926;2023-03-01T13:34:47;6.10;54.00
69189;DHT22;56302;52.322;5.926;2023-03-01T13:37:28;6.20;54.20
69189;DHT22;56302;52.322;5.926;2023-03-01T13:39:56;6.10;54.60
69189;DHT22;56302;52.322;5.926;2023-03-01T13:42:39;6.10;54.60
69189;DHT22;56302;52.322;5.926;2023-03-01T13:45:24;6.10;55.20
69189;DHT22;56302;52.322;5.926;2023-03-01T13:47:57;6.20;55.60
69189;DHT22;56302;52.322;5.926;2023-03-01T13:50:29;6.30;54.30
69189;DHT22;56302;52.322;5.926;2023-03-01T13:53:00;6.20;53.50
69189;DHT22;56302;52.322;5.926;2023-03-01T13:55:42;6.20;54.30
69189;DHT22;56302;52.322;5.926;2023-03-01T13:58:23;6.10;53.60
69189;DHT22;56302;52.322;5.926;2023-03-01T14:01:20;6.10;53.40
69189;DHT22;56302;52.322;5.926;2023-03-01T14:03:46;6.20;53.90
69189;DHT22;56302;52.322;5.926;2023-03-01T14:06:14;6.20;54.00
69189;DHT22;56302;52.322;5.926;2023-03-01T14:08:44;6.20;52.90
69189;DHT22;56302;52.322;5.926;2023-03-01T14:11:38;6.10;52.70
69189;DHT22;56302;52.322;5.926;2023-03-01T14:19:31;6.30;53.00
69189;DHT22;56302;52.322;5.926;2023-03-01T14:22:11;6.30;53.30
69189;DHT22;56302;52.322;5.926;2023-03-01T14:24:49;6.30;53.00
69189;DHT22;56302;52.322;5.926;2023-03-01T14:27:16;6.20;52.60
69189;DHT22;56302;52.322;5.926;2023-03-01T14:29:43;6.20;53.50
69189;DHT22;56302;52.322;5.926;2023-03-01T14:32:19;6.30;53.70
69189;DHT22;56302;52.322;5.926;2023-03-01T14:34:48;6.30;53.10
69189;DHT22;56302;52.322;5.926;2023-03-01T14:37:26;6.30;52.00
69189;DHT22;56302;52.322;5.926;2023-03-01T14:39:52;6.20;51.90
69189;DHT22;56302;52.322;5.926;2023-03-01T14:42:20;6.20;52.00
69189;DHT22;56302;52.322;5.926;2023-03-01T14:44:49;6.20;51.90
69189;DHT22;56302;52.322;5.926;2023-03-01T14:47:27;6.20;52.10
69189;DHT22;56302;52.322;5.926;2023-03-01T14:50:01;6.30;52.10
69189;DHT22;56302;52.322;5.926;2023-03-01T14:52:48;6.30;51.20
69189;DHT22;56302;52.322;5.926;2023-03-01T14:55:25;6.20;52.30
69189;DHT22;56302;52.322;5.926;2023-03-01T14:57:51;6.30;52.30
69189;DHT22;56302;52.322;5.926;2023-03-01T15:00:29;6.40;52.40
69189;DHT22;56302;52.322;5.926;2023-03-01T15:02:56;6.30;51.40
69189;DHT22;56302;52.322;5.926;2023-03-01T15:05:32;6.30;51.30
69189;DHT22;56302;52.322;5.926;2023-03-01T15:07:59;6.30;51.50
69189;DHT22;56302;52.322;5.926;2023-03-01T15:10:35;6.30;51.00
69189;DHT22;56302;52.322;5.926;2023-03-01T15:13:22;6.20;51.20
69189;DHT22;56302;52.322;5.926;2023-03-01T15:15:48;6.20;51.30
69189;DHT22;56302;52.322;5.926;2023-03-01T15:18:16;6.20;51.50
69189;DHT22;56302;52.322;5.926;2023-03-01T15:20:43;6.30;52.40
69189;DHT22;56302;52.322;5.926;2023-03-01T15:23:28;6.30;51.70
69189;DHT22;56302;52.322;5.926;2023-03-01T15:25:55;6.30;52.10
69189;DHT22;56302;52.322;5.926;2023-03-01T15:28:28;6.20;52.00
69189;DHT22;56302;52.322;5.926;2023-03-01T15:31:01;6.20;51.90
69189;DHT22;56302;52.322;5.926;2023-03-01T15:33:33;6.20;52.20
69189;DHT22;56302;52.322;5.926;2023-03-01T15:36:01;6.20;52.50
69189;DHT22;56302;52.322;5.926;2023-03-01T15:38:35;6.10;51.70
69189;DHT22;56302;52.322;5.926;2023-03-01T15:41:06;6.20;51.70
69189;DHT22;56302;52.322;5.926;2023-03-01T15:43:46;6.10;51.10
69189;DHT22;56302;52.322;5.926;2023-03-01T15:46:21;6.10;51.30
69189;DHT22;56302;52.322;5.926;2023-03-01T15:48:52;6.10;51.50
69189;DHT22;56302;52.322;5.926;2023-03-01T15:51:22;6.00;51.20
69189;DHT22;56302;52.322;5.926;2023-03-01T15:53:52;6.00;52.10
69189;DHT22;56302;52.322;5.926;2023-03-01T15:56:18;6.00;51.40
69189;DHT22;56302;52.322;5.926;2023-03-01T15:58:44;6.00;51.30
69189;DHT22;56302;52.322;5.926;2023-03-01T16:01:17;5.90;51.60
69189;DHT22;56302;52.322;5.926;2023-03-01T16:03:43;5.90;51.90
69189;DHT22;56302;52.322;5.926;2023-03-01T16:06:12;5.80;51.80
69189;DHT22;56302;52.322;5.926;2023-03-01T16:08:38;5.80;51.00
69189;DHT22;56302;52.322;5.926;2023-03-01T16:11:05;5.80;51.20
69189;DHT22;56302;52.322;5.926;2023-03-01T16:13:34;5.70;51.40
69189;DHT22;56302;52.322;5.926;2023-03-01T16:16:00;5.70;51.80
69189;DHT22;56302;52.322;5.926;2023-03-01T16:18:25;5.60;52.20
69189;DHT22;56302;52.322;5.926;2023-03-01T16:20:51;5.60;52.20
69189;DHT22;56302;52.322;5.926;2023-03-01T16:23:17;5.60;52.60
69189;DHT22;56302;52.322;5.926;2023-03-01T16:25:43;5.50;52.60
69189;DHT22;56302;52.322;5.926;2023-03-01T16:28:08;5.50;53.20
69189;DHT22;56302;52.322;5.926;2023-03-01T16:30:36;5.50;53.30
69189;DHT22;56302;52.322;5.926;2023-03-01T16:33:02;5.40;53.80
69189;DHT22;56302;52.322;5.926;2023-03-01T16:35:27;5.40;54.10
69189;DHT22;56302;52.322;5.926;2023-03-01T16:37:54;5.30;54.30
69189;DHT22;56302;52.322;5.926;2023-03-01T16:40:21;5.30;54.30
69189;DHT22;56302;52.322;5.926;2023-03-01T16:42:48;5.20;54.80
69189;DHT22;56302;52.322;5.926;2023-03-01T16:45:13;5.20;54.80
69189;DHT22;56302;52.322;5.926;2023-03-01T16:47:39;5.10;54.90
69189;DHT22;56302;52.322;5.926;2023-03-01T16:50:05;5.00;55.40
69189;DHT22;56302;52.322;5.926;2023-03-01T16:52:30;5.00;55.20
69189;DHT22;56302;52.322;5.926;2023-03-01T16:54:56;5.00;55.30
69189;DHT22;56302;52.322;5.926;2023-03-01T16:57:22;4.90;55.70
69189;DHT22;56302;52.322;5.926;2023-03-01T16:59:51;4.80;56.00
69189;DHT22;56302;52.322;5.926;2023-03-01T17:02:18;4.70;56.40
69189;DHT22;56302;52.322;5.926;2023-03-01T17:04:45;4.70;56.80
69189;DHT22;56302;52.322;5.926;2023-03-01T17:07:10;4.60;56.80
69189;DHT22;56302;52.322;5.926;2023-03-01T17:09:37;4.50;57.20
69189;DHT22;56302;52.322;5.926;2023-03-01T17:12:05;4.40;57.60
69189;DHT22;56302;52.322;5.926;2023-03-01T17:14:31;4.30;57.60
69189;DHT22;56302;52.322;5.926;2023-03-01T17:16:56;4.30;57.90
69189;DHT22;56302;52.322;5.926;2023-03-01T17:19:22;4.20;58.10
69189;DHT22;56302;52.322;5.926;2023-03-01T17:21:47;4.10;58.20
69189;DHT22;56302;52.322;5.926;2023-03-01T17:24:13;4.10;58.50
69189;DHT22;56302;52.322;5.926;2023-03-01T17:26:39;4.10;58.70
69189;DHT22;56302;52.322;5.926;2023-03-01T17:29:05;4.00;58.90
69189;DHT22;56302;52.322;5.926;2023-03-01T17:31:32;3.90;59.10
69189;DHT22;56302;52.322;5.926;2023-03-01T17:33:58;3.90;59.30
69189;DHT22;56302;52.322;5.926;2023-03-01T17:36:23;3.90;59.40